createdAt,value
2022-11-16T00:00:28.725Z,49.40
2022-11-16T00:04:30.374Z,49.03
2022-11-16T00:08:34.747Z,53.30
2022-11-16T00:12:36.647Z,52.28
2022-11-16T00:16:38.727Z,57.35
2022-11-16T00:20:40.164Z,53.70
2022-11-16T00:24:41.591Z,52.88
2022-11-16T00:28:43.105Z,52.35
2022-11-16T00:32:44.495Z,55.47
2022-11-16T00:36:46.884Z,43.05
2022-11-16T00:40:48.795Z,52.20
2022-11-16T00:44:50.348Z,50.40
2022-11-16T00:48:51.798Z,51.00
2022-11-16T00:52:53.802Z,47.50
2022-11-16T00:56:55.234Z,50.50
2022-11-16T01:00:56.746Z,55.40
2022-11-16T01:04:58.265Z,60.88
2022-11-16T01:09:00.186Z,50.80
2022-11-16T01:13:01.598Z,47.60
2022-11-16T01:17:03.950Z,49.63
2022-11-16T01:21:08.695Z,50.70
2022-11-16T01:25:11.990Z,51.88
2022-11-16T01:29:13.690Z,46.17
2022-11-16T01:33:15.139Z,52.83
2022-11-16T01:37:17.503Z,55.20
2022-11-16T01:41:22.880Z,58.42
2022-11-16T01:45:37.494Z,57.38
2022-11-16T01:49:46.123Z,53.17
2022-11-16T01:53:47.679Z,49.85
2022-11-16T01:57:50.000Z,45.28
2022-11-16T02:01:51.418Z,44.60
2022-11-16T02:06:26.552Z,53.38
2022-11-16T02:10:49.821Z,55.50
2022-11-16T02:15:24.375Z,49.22
2022-11-16T02:19:59.411Z,52.03
2022-11-16T02:24:19.203Z,49.25
2022-11-16T02:28:49.776Z,47.28
2022-11-16T02:33:01.569Z,52.08
2022-11-16T02:37:06.455Z,52.90
2022-11-16T02:41:21.043Z,52.63
2022-11-16T02:45:27.843Z,48.03
2022-11-16T02:49:33.884Z,51.00
2022-11-16T02:53:50.527Z,46.55
2022-11-16T02:58:07.329Z,45.58
2022-11-16T03:02:31.935Z,41.53
2022-11-16T03:06:36.122Z,56.88
2022-11-16T03:10:58.622Z,49.72
2022-11-16T03:15:04.865Z,38.42
2022-11-16T03:19:10.526Z,54.28
2022-11-16T03:23:13.755Z,48.75
2022-11-16T03:27:39.149Z,46.83
2022-11-16T03:31:48.943Z,46.42
2022-11-16T03:36:01.261Z,53.42
2022-11-16T03:40:04.912Z,52.03
2022-11-16T03:44:08.907Z,47.15
2022-11-16T03:48:11.736Z,52.28
2022-11-16T03:52:15.425Z,50.55
2022-11-16T03:56:16.895Z,55.00
2022-11-16T04:00:18.544Z,51.83
2022-11-16T04:04:38.586Z,61.78
2022-11-16T04:08:58.318Z,58.70
2022-11-16T04:13:19.310Z,61.67
2022-11-16T04:17:42.551Z,60.67
2022-11-16T04:22:09.917Z,60.55
2022-11-16T04:26:11.660Z,65.60
2022-11-16T04:30:13.448Z,53.75
2022-11-16T04:34:33.216Z,69.32
2022-11-16T04:38:35.046Z,83.18
2022-11-16T04:42:36.910Z,83.32
2022-11-16T04:46:56.858Z,65.30
2022-11-16T04:50:58.272Z,78.43
2022-11-16T04:54:59.917Z,78.15
2022-11-16T04:59:01.405Z,76.05
2022-11-16T05:03:04.732Z,84.45
2022-11-16T05:07:11.203Z,81.10
2022-11-16T05:11:12.782Z,86.60
2022-11-16T05:15:14.344Z,78.07
2022-11-16T05:19:34.276Z,74.13
2022-11-16T05:23:54.450Z,82.20
2022-11-16T05:27:55.917Z,87.55
2022-11-16T05:31:58.298Z,89.40
2022-11-16T05:35:59.746Z,77.55
2022-11-16T05:40:01.262Z,82.53
2022-11-16T05:44:02.767Z,79.20
2022-11-16T05:48:04.453Z,82.90
2022-11-16T05:52:05.912Z,90.45
2022-11-16T05:56:07.588Z,81.53
2022-11-16T06:00:09.691Z,85.70
2022-11-16T06:04:12.235Z,89.13
2022-11-16T06:08:13.733Z,98.43
2022-11-16T06:12:15.256Z,84.57
2022-11-16T06:16:17.029Z,86.45
2022-11-16T06:20:18.595Z,90.20
2022-11-16T06:24:20.035Z,98.43
2022-11-16T06:28:22.113Z,90.88
2022-11-16T06:32:23.552Z,85.72
2022-11-16T06:36:25.135Z,84.50
2022-11-16T06:40:26.592Z,90.20
2022-11-16T06:44:28.034Z,100.03
2022-11-16T06:48:30.854Z,104.13
2022-11-16T06:52:32.478Z,94.15
2022-11-16T06:56:35.343Z,109.00
2022-11-16T07:00:36.885Z,100.78
2022-11-16T07:04:38.398Z,103.63
2022-11-16T07:08:39.956Z,114.35
2022-11-16T07:12:41.440Z,104.60
2022-11-16T07:16:43.089Z,104.80
2022-11-16T07:20:44.592Z,101.75
2022-11-16T07:24:46.147Z,106.93
2022-11-16T07:28:48.555Z,104.20
2022-11-16T07:32:50.262Z,100.75
2022-11-16T07:36:51.717Z,100.65
2022-11-16T07:40:53.223Z,114.10
2022-11-16T07:44:54.661Z,120.45
2022-11-16T07:48:56.889Z,108.88
2022-11-16T07:52:58.356Z,125.40
2022-11-16T07:56:59.996Z,116.07
2022-11-16T08:01:14.537Z,106.15
2022-11-16T08:05:16.206Z,118.32
2022-11-16T08:09:17.762Z,115.78
2022-11-16T08:13:19.207Z,110.25
2022-11-16T08:17:20.734Z,120.18
2022-11-16T08:21:22.175Z,111.25
2022-11-16T08:25:23.650Z,114.10
2022-11-16T08:29:26.392Z,119.15
2022-11-16T08:33:29.375Z,125.25
2022-11-16T08:37:31.959Z,128.32
2022-11-16T08:41:35.804Z,130.80
2022-11-16T08:45:38.369Z,120.03
2022-11-16T08:49:41.957Z,120.28
2022-11-16T08:53:47.881Z,109.13
2022-11-16T08:57:49.330Z,113.10
2022-11-16T09:01:50.854Z,110.72
2022-11-16T09:05:52.468Z,101.03
2022-11-16T09:09:53.914Z,102.47
2022-11-16T09:13:55.949Z,95.10
2022-11-16T09:17:57.448Z,94.53
2022-11-16T09:21:58.878Z,99.55
2022-11-16T09:26:02.268Z,90.80
2022-11-16T09:30:05.286Z,84.47
2022-11-16T09:34:07.146Z,86.75
2022-11-16T09:38:16.021Z,73.30
2022-11-16T09:42:52.638Z,81.00
2022-11-16T09:46:57.700Z,75.38
2022-11-16T09:51:02.853Z,59.17
2022-11-16T09:55:27.355Z,63.60
2022-11-16T09:59:38.517Z,66.30
2022-11-16T10:03:45.246Z,66.55
2022-11-16T10:07:50.131Z,53.47
2022-11-16T10:11:54.502Z,34.00
2022-11-16T10:16:44.722Z,47.05
2022-11-16T10:21:07.244Z,46.78
2022-11-16T10:25:16.493Z,37.45
2022-11-16T10:29:47.353Z,35.40
2022-11-16T10:33:53.849Z,31.27
2022-11-16T10:37:58.960Z,28.77
2022-11-16T10:42:07.710Z,28.08
2022-11-16T10:46:16.569Z,29.47
2022-11-16T10:50:40.821Z,32.92
2022-11-16T10:54:44.423Z,33.50
2022-11-16T10:59:05.231Z,35.13
2022-11-16T11:03:07.280Z,36.83
2022-11-16T11:07:31.468Z,34.15
2022-11-16T11:11:51.526Z,34.20
2022-11-16T11:16:13.776Z,43.30
2022-11-16T11:20:15.339Z,41.95
2022-11-16T11:24:43.397Z,37.53
2022-11-16T11:28:49.090Z,24.75
2022-11-16T11:32:52.785Z,39.65
2022-11-16T11:36:58.205Z,35.20
2022-11-16T11:41:02.273Z,37.03
2022-11-16T11:45:08.969Z,34.92
2022-11-16T11:49:19.611Z,36.13
2022-11-16T11:53:43.325Z,39.63
2022-11-16T11:57:47.700Z,35.83
2022-11-16T12:01:58.227Z,33.45
2022-11-16T12:06:02.589Z,33.40
2022-11-16T12:10:13.314Z,36.15
2022-11-16T12:14:17.815Z,36.35
2022-11-16T12:18:41.095Z,32.42
2022-11-16T12:23:20.894Z,33.80
2022-11-16T12:27:51.539Z,34.55
2022-11-16T12:32:00.957Z,30.35
2022-11-16T12:36:15.837Z,35.00
2022-11-16T12:40:32.635Z,31.58
2022-11-16T12:45:05.890Z,32.15
2022-11-16T12:49:24.383Z,38.63
2022-11-16T12:53:25.788Z,36.78
2022-11-16T12:57:27.449Z,32.97
2022-11-16T13:01:56.263Z,35.28
2022-11-16T13:06:12.293Z,35.28
2022-11-16T13:10:24.522Z,36.97
2022-11-16T13:14:39.434Z,37.03
2022-11-16T13:18:42.870Z,36.08
2022-11-16T13:22:57.555Z,32.30
2022-11-16T13:27:18.245Z,33.67
2022-11-16T13:31:28.526Z,34.28
2022-11-16T13:35:30.269Z,31.58
2022-11-16T13:39:50.361Z,29.08
2022-11-16T13:43:51.951Z,30.70
2022-11-16T13:47:56.066Z,31.73
2022-11-16T13:52:17.187Z,31.38
2022-11-16T13:56:28.730Z,29.58
2022-11-16T14:00:33.735Z,28.95
2022-11-16T14:04:38.949Z,29.27
2022-11-16T14:08:40.433Z,30.77
2022-11-16T14:12:41.833Z,29.55
2022-11-16T14:16:48.885Z,29.80
2022-11-16T14:20:57.060Z,26.45
2022-11-16T14:25:09.479Z,28.13
2022-11-16T14:29:29.377Z,26.95
2022-11-16T14:33:33.987Z,23.85
2022-11-16T14:37:42.244Z,26.33
2022-11-16T14:41:45.319Z,22.55
2022-11-16T14:45:55.078Z,22.33
2022-11-16T14:49:57.166Z,23.05
2022-11-16T14:54:05.039Z,22.58
2022-11-16T14:58:24.658Z,26.33
2022-11-16T15:02:27.633Z,24.33
2022-11-16T15:06:35.433Z,25.08
2022-11-16T15:10:36.996Z,20.70
2022-11-16T15:14:45.728Z,22.42
2022-11-16T15:19:01.572Z,27.02
2022-11-16T15:23:05.012Z,21.67
2022-11-16T15:27:06.377Z,27.15
2022-11-16T15:31:14.892Z,24.35
2022-11-16T15:35:21.637Z,23.45
2022-11-16T15:39:25.645Z,29.58
2022-11-16T15:43:45.133Z,27.77
2022-11-16T15:47:56.470Z,25.67
2022-11-16T15:51:58.832Z,25.35
2022-11-16T15:56:00.638Z,30.52
2022-11-16T16:00:02.461Z,26.25
2022-11-16T16:04:05.987Z,27.23
2022-11-16T16:08:27.929Z,26.70
2022-11-16T16:12:29.393Z,26.67
2022-11-16T16:16:55.541Z,27.23
2022-11-16T16:20:56.996Z,26.30
2022-11-16T16:24:58.583Z,20.05
2022-11-16T16:29:00.019Z,23.30
2022-11-16T16:33:02.378Z,25.13
2022-11-16T16:37:03.934Z,21.65
2022-11-16T16:41:06.468Z,23.13
2022-11-16T16:45:15.903Z,26.25
2022-11-16T16:49:17.359Z,24.77
2022-11-16T16:53:18.853Z,20.80
2022-11-16T16:57:20.290Z,20.35
2022-11-16T17:01:24.231Z,20.35
2022-11-16T17:05:26.401Z,22.63
2022-11-16T17:09:27.861Z,21.05
2022-11-16T17:13:29.565Z,21.75
2022-11-16T17:17:31.533Z,23.40
2022-11-16T17:21:33.028Z,20.65
2022-11-16T17:25:36.647Z,18.98
2022-11-16T17:29:38.105Z,18.58
2022-11-16T17:33:43.190Z,15.93
2022-11-16T17:37:44.609Z,24.42
2022-11-16T17:41:46.102Z,20.83
2022-11-16T17:45:47.572Z,18.73
2022-11-16T17:49:49.054Z,19.00
2022-11-16T17:53:51.048Z,18.75
2022-11-16T17:57:52.521Z,25.58
2022-11-16T18:01:53.962Z,19.45
2022-11-16T18:06:11.138Z,21.15
2022-11-16T18:10:17.856Z,19.63
2022-11-16T18:14:20.751Z,20.60
2022-11-16T18:18:22.218Z,21.98
2022-11-16T18:22:24.213Z,17.80
2022-11-16T18:26:25.740Z,16.17
2022-11-16T18:30:27.257Z,11.60
2022-11-16T18:34:28.824Z,15.75
2022-11-16T18:38:30.879Z,14.30
2022-11-16T18:42:32.334Z,13.85
2022-11-16T18:46:33.878Z,15.90
2022-11-16T18:50:35.344Z,14.38
2022-11-16T18:54:36.869Z,13.00
2022-11-16T18:58:54.648Z,13.98
2022-11-16T19:02:56.164Z,16.48
2022-11-16T19:06:57.645Z,12.35
2022-11-16T19:11:06.791Z,14.40
2022-11-16T19:15:08.490Z,13.00
2022-11-16T19:19:10.067Z,12.70
2022-11-16T19:23:11.552Z,13.38
2022-11-16T19:27:13.068Z,15.20
2022-11-16T19:31:26.829Z,13.75
2022-11-16T19:35:28.416Z,13.57
2022-11-16T19:39:29.905Z,10.48
2022-11-16T19:43:32.141Z,13.40
2022-11-16T19:47:33.787Z,14.10
2022-11-16T19:51:35.430Z,13.35
2022-11-16T19:55:36.925Z,13.13
2022-11-16T19:59:38.626Z,11.93
2022-11-16T20:03:43.155Z,11.38
2022-11-16T20:07:44.689Z,14.90
2022-11-16T20:11:46.183Z,11.82
2022-11-16T20:15:47.733Z,13.38
2022-11-16T20:19:49.148Z,12.77
2022-11-16T20:23:54.037Z,12.73
2022-11-16T20:27:55.575Z,13.95
2022-11-16T20:31:57.145Z,12.57
2022-11-16T20:36:03.626Z,10.60
2022-11-16T20:40:05.700Z,11.68
2022-11-16T20:44:11.953Z,10.75
2022-11-16T20:48:17.534Z,13.38
2022-11-16T20:52:19.165Z,11.32
2022-11-16T20:56:20.914Z,9.13
2022-11-16T21:00:22.507Z,11.07
2022-11-16T21:04:23.999Z,12.05
2022-11-16T21:08:26.157Z,11.27
2022-11-16T21:12:46.382Z,11.43
2022-11-16T21:16:48.064Z,9.70
2022-11-16T21:20:56.372Z,10.48
2022-11-16T21:25:01.014Z,9.60
2022-11-16T21:29:02.817Z,8.98
2022-11-16T21:33:04.294Z,9.70
2022-11-16T21:37:05.739Z,10.68
2022-11-16T21:41:08.552Z,10.23
2022-11-16T21:45:10.615Z,15.88
2022-11-16T21:49:12.111Z,10.80
2022-11-16T21:53:13.601Z,8.93
2022-11-16T21:57:15.482Z,12.13
2022-11-16T22:01:17.181Z,8.00
2022-11-16T22:05:37.792Z,12.38
2022-11-16T22:09:39.309Z,9.88
2022-11-16T22:13:41.644Z,10.32
2022-11-16T22:17:44.186Z,14.32
2022-11-16T22:21:45.678Z,8.93
2022-11-16T22:25:47.131Z,10.32
2022-11-16T22:29:48.683Z,6.55
2022-11-16T22:33:53.759Z,8.70
2022-11-16T22:37:55.978Z,9.15
2022-11-16T22:41:57.582Z,9.10
2022-11-16T22:46:04.478Z,10.40
2022-11-16T22:50:06.328Z,8.13
2022-11-16T22:54:11.435Z,10.90
2022-11-16T22:58:12.964Z,8.48
2022-11-16T23:02:14.479Z,9.80
2022-11-16T23:06:16.605Z,9.57
2022-11-16T23:10:18.161Z,7.75
2022-11-16T23:14:38.135Z,11.05
2022-11-16T23:18:39.627Z,8.70
2022-11-16T23:22:59.690Z,8.43
2022-11-16T23:27:21.487Z,9.27
2022-11-16T23:31:23.064Z,11.02
2022-11-16T23:35:24.663Z,10.23
2022-11-16T23:39:26.122Z,9.15
2022-11-16T23:43:46.189Z,11.63
2022-11-16T23:47:47.648Z,12.40
2022-11-16T23:51:49.209Z,9.07
2022-11-16T23:55:51.029Z,12.25
2022-11-16T23:59:52.628Z,10.15
